Time;durP1;ratioP1;P1;durP2;ratioP2;P2;SDS_P1;SDS_P2;PMS_P1;PMS_P2;Temp;Humidity;BMP_temperature;BMP_pressure;BME280_temperature;BME280_humidity;BME280_pressure;Samples;Min_cycle;Max_cycle;Signal;HPM_P1;HPM_P2
2021/11/21 00:01:34;;;;;;;0.40;0.40;;;;;;;7.46;59.66;97262.03;3414928;29;20059;-71
2021/11/21 00:03:15;;;;;;;0.65;0.45;;;;;;;7.49;59.63;97266.06;3415971;28;20031;-71
2021/11/21 00:04:56;;;;;;;1.00;0.50;;;;;;;7.51;59.69;97266.59;3400806;29;20345;-71
2021/11/21 00:06:36;;;;;;;0.80;0.60;;;;;;;7.51;59.55;97270.09;3412386;29;20046;-73
2021/11/21 00:08:17;;;;;;;0.40;0.40;;;;;;;7.53;59.65;97289.19;3415523;29;20039;-74
2021/11/21 00:09:58;;;;;;;0.40;0.40;;;;;;;7.52;59.69;97265.59;3415362;29;20142;-73
2021/11/21 00:11:39;;;;;;;3.00;0.73;;;;;;;7.62;59.77;97281.69;3415287;29;20066;-72
2021/11/21 00:13:21;;;;;;;1.00;0.50;;;;;;;7.67;59.91;97289.75;3414634;29;20043;-73
2021/11/21 00:15:04;;;;;;;0.57;0.57;;;;;;;7.71;60.00;97288.22;3414878;29;20046;-75
2021/11/21 00:16:45;;;;;;;0.73;0.50;;;;;;;7.78;59.81;97288.91;3415009;29;20039;-73
2021/11/21 00:18:26;;;;;;;0.45;0.40;;;;;;;7.76;59.83;97290.97;3415104;29;20043;-73
2021/11/21 00:20:10;;;;;;;0.60;0.60;;;;;;;7.83;60.03;97296.94;3414819;29;20081;-71
2021/11/21 00:21:51;;;;;;;1.45;0.50;;;;;;;7.85;59.98;97294.06;3414878;29;20035;-74
2021/11/21 00:23:32;;;;;;;1.23;0.52;;;;;;;7.89;59.89;97292.53;3414223;29;20053;-72
2021/11/21 00:25:13;;;;;;;1.15;0.60;;;;;;;7.93;60.04;97301.66;3414771;29;20047;-73
2021/11/21 00:26:53;;;;;;;1.48;0.50;;;;;;;7.96;59.93;97303.03;3414845;29;20047;-72
2021/11/21 00:28:34;;;;;;;0.35;0.35;;;;;;;7.99;59.84;97302.53;3414651;29;20047;-73
2021/11/21 00:30:15;;;;;;;2.75;0.93;;;;;;;7.98;60.09;97295.63;3414603;29;20063;-73
2021/11/21 00:31:56;;;;;;;1.48;0.68;;;;;;;8.03;59.88;97298.38;3414835;29;20417;-73
2021/11/21 00:33:36;;;;;;;1.45;0.40;;;;;;;8.06;59.76;97293.41;3414248;29;20498;-72
2021/11/21 00:35:17;;;;;;;1.58;0.50;;;;;;;8.11;59.76;97294.56;3414678;29;20126;-74
2021/11/21 00:36:58;;;;;;;2.72;0.73;;;;;;;8.13;59.78;97290.63;3414675;29;20126;-74
2021/11/21 00:38:39;;;;;;;0.40;0.40;;;;;;;8.13;59.93;97293.28;3414596;29;20094;-72
2021/11/21 00:40:19;;;;;;;0.50;0.30;;;;;;;8.20;59.67;97301.06;3414534;29;20507;-72
2021/11/21 00:42:00;;;;;;;0.40;0.40;;;;;;;8.23;59.90;97298.72;3400363;29;20135;-74
2021/11/21 00:43:41;;;;;;;1.55;0.63;;;;;;;8.23;59.84;97301.38;3411058;28;20062;-74
2021/11/21 00:45:22;;;;;;;1.85;0.50;;;;;;;8.26;59.79;97300.09;3413426;29;20090;-72
2021/11/21 00:47:03;;;;;;;0.82;0.43;;;;;;;8.25;59.75;97304.63;3413645;29;20055;-71
2021/11/21 00:48:44;;;;;;;0.63;0.40;;;;;;;8.24;59.81;97303.00;3414551;29;20066;-71
2021/11/21 00:50:27;;;;;;;0.80;0.47;;;;;;;8.27;59.68;97310.50;3414677;29;20039;-72
2021/11/21 00:52:09;;;;;;;0.55;0.55;;;;;;;8.26;59.63;97300.94;3414673;29;20295;-71
2021/11/21 00:53:54;;;;;;;0.85;0.43;;;;;;;8.28;59.75;97308.63;3414692;29;20086;-72
2021/11/21 00:55:38;;;;;;;1.55;0.50;;;;;;;8.29;59.58;97313.72;3414085;29;20043;-71
2021/11/21 00:57:20;;;;;;;0.47;0.43;;;;;;;8.29;59.67;97321.69;3414283;29;20043;-71
2021/11/21 00:59:01;;;;;;;2.78;0.68;;;;;;;8.29;59.54;97321.69;3414334;29;20383;-71
2021/11/21 01:00:45;;;;;;;1.92;0.80;;;;;;;8.29;59.54;97319.03;3414556;29;20395;-72
2021/11/21 01:02:26;;;;;;;4.03;0.40;;;;;;;8.26;59.72;97314.19;3414570;29;20039;-72
2021/11/21 01:04:07;;;;;;;0.55;0.40;;;;;;;8.32;59.43;97328.38;3414665;29;20573;-71
2021/11/21 01:05:49;;;;;;;0.50;0.50;;;;;;;8.28;59.60;97322.72;3414337;29;20474;-71
2021/11/21 01:07:29;;;;;;;1.92;0.60;;;;;;;8.32;59.43;97316.94;3414556;29;20042;-72
2021/11/21 01:09:11;;;;;;;0.98;0.50;;;;;;;8.32;59.53;97322.25;3414392;29;20585;-71
2021/11/21 01:11:00;;;;;;;0.50;0.47;;;;;;;8.33;59.39;97329.16;3414284;29;20043;-72
2021/11/21 01:12:41;;;;;;;0.60;0.60;;;;;;;8.33;59.50;97324.66;3414397;29;20055;-72
2021/11/21 01:14:25;;;;;;;2.83;0.70;;;;;;;8.36;59.61;97326.03;3414655;29;20090;-72
2021/11/21 01:16:06;;;;;;;0.52;0.50;;;;;;;8.38;59.65;97321.28;3413972;29;20039;-72
2021/11/21 01:17:48;;;;;;;0.40;0.40;;;;;;;8.39;59.68;97333.50;3414406;29;20051;-72
2021/11/21 01:19:28;;;;;;;0.50;0.50;;;;;;;8.37;59.55;97325.78;3414314;29;20043;-71
2021/11/21 01:21:09;;;;;;;0.40;0.40;;;;;;;8.36;59.37;97328.69;3414481;29;20136;-71
2021/11/21 01:22:51;;;;;;;1.40;0.52;;;;;;;8.35;59.55;97327.06;3400399;29;20415;-72
2021/11/21 01:24:31;;;;;;;0.50;0.50;;;;;;;8.33;59.52;97331.81;3411559;29;20043;-72
2021/11/21 01:26:12;;;;;;;0.50;0.50;;;;;;;8.32;59.44;97332.88;3413886;29;20039;-72
2021/11/21 01:27:53;;;;;;;2.70;0.60;;;;;;;8.30;59.60;97331.25;3413972;29;20126;-72
2021/11/21 01:29:34;;;;;;;0.50;0.50;;;;;;;8.28;59.55;97328.00;3414216;29;20122;-72
2021/11/21 01:31:15;;;;;;;3.05;0.47;;;;;;;8.29;59.72;97340.25;3414637;29;20286;-73
2021/11/21 01:32:57;;;;;;;2.10;0.60;;;;;;;8.27;59.50;97338.88;3414423;29;20069;-73
2021/11/21 01:34:38;;;;;;;0.77;0.63;;;;;;;8.29;59.50;97345.56;3414619;29;20042;-72
2021/11/21 01:36:19;;;;;;;2.47;0.60;;;;;;;8.27;59.54;97347.63;3413847;29;20075;-72
2021/11/21 01:38:01;;;;;;;1.15;0.70;;;;;;;8.26;59.45;97351.34;3414074;29;20494;-72
2021/11/21 01:39:42;;;;;;;1.98;0.40;;;;;;;8.26;59.49;97351.34;3414106;29;20484;-72
2021/11/21 01:41:22;;;;;;;0.75;0.50;;;;;;;8.25;59.61;97349.72;3414523;29;20047;-72
2021/11/21 01:43:04;;;;;;;2.17;0.60;;;;;;;8.25;59.50;97347.06;3414230;29;20039;-73
2021/11/21 01:44:45;;;;;;;0.60;0.60;;;;;;;8.25;59.47;97343.63;3414219;29;20043;-72
2021/11/21 01:46:34;;;;;;;2.25;1.00;;;;;;;8.24;59.42;97353.44;3413801;29;20568;-71
2021/11/21 01:48:15;;;;;;;0.63;0.43;;;;;;;8.23;59.55;97351.81;3414264;29;20045;-72
2021/11/21 01:49:55;;;;;;;0.70;0.55;;;;;;;8.21;59.41;97351.25;3414256;29;20166;-72
2021/11/21 01:51:36;;;;;;;0.70;0.30;;;;;;;8.19;59.32;97352.53;3414094;29;20087;-73
2021/11/21 01:53:17;;;;;;;0.80;0.60;;;;;;;8.19;59.43;97349.88;3414241;29;20062;-72
2021/11/21 01:54:58;;;;;;;0.40;0.40;;;;;;;8.18;59.38;97342.94;3414061;28;20055;-72
2021/11/21 01:56:41;;;;;;;0.50;0.50;;;;;;;8.18;59.36;97345.59;3416306;29;20133;-72
2021/11/21 01:58:22;;;;;;;0.98;0.40;;;;;;;8.15;59.40;97346.88;3417195;29;20110;-72
2021/11/21 02:00:08;;;;;;;1.20;0.65;;;;;;;8.14;59.29;97358.53;3416896;29;20039;-71
2021/11/21 02:01:54;;;;;;;0.50;0.50;;;;;;;8.14;59.25;97353.25;3417005;29;20429;-71
2021/11/21 02:03:35;;;;;;;0.55;0.55;;;;;;;8.14;59.45;97342.63;3416914;29;20289;-71
2021/11/21 02:05:16;;;;;;;1.23;0.57;;;;;;;8.13;59.52;97348.97;3417011;29;20094;-73
2021/11/21 02:06:57;;;;;;;0.50;0.50;;;;;;;8.13;59.31;97356.94;3415185;29;20043;-71
2021/11/21 02:08:37;;;;;;;0.52;0.52;;;;;;;8.07;59.62;97349.91;3416780;29;20051;-73
2021/11/21 02:10:20;;;;;;;0.63;0.50;;;;;;;8.15;59.61;97365.44;3416525;29;20039;-71
2021/11/21 02:12:04;;;;;;;0.63;0.63;;;;;;;8.15;59.28;97365.44;3416298;29;20101;-72
2021/11/21 02:13:48;;;;;;;2.63;0.63;;;;;;;8.15;59.40;97359.34;3416385;29;20514;-72
2021/11/21 02:15:29;;;;;;;0.50;0.50;;;;;;;8.15;59.25;97357.50;3416514;29;20039;-72
2021/11/21 02:17:09;;;;;;;0.98;0.50;;;;;;;8.17;59.39;97362.56;3415991;29;20146;-72
2021/11/21 02:18:50;;;;;;;2.80;0.60;;;;;;;8.16;59.48;97364.44;3416299;29;20438;-71
2021/11/21 02:20:34;;;;;;;1.40;0.52;;;;;;;8.18;59.43;97367.63;3416198;29;20066;-72
2021/11/21 02:22:14;;;;;;;2.03;0.70;;;;;;;8.18;59.10;97359.66;3416503;29;20043;-73
2021/11/21 02:23:55;;;;;;;2.60;0.60;;;;;;;8.17;59.26;97362.56;3416376;29;20043;-73
2021/11/21 02:25:37;;;;;;;3.00;0.90;;;;;;;8.17;59.49;97371.34;3416367;29;20047;-73
2021/11/21 02:27:23;;;;;;;0.57;0.50;;;;;;;8.16;59.49;97367.06;3416181;29;20053;-72
2021/11/21 02:29:04;;;;;;;0.95;0.40;;;;;;;8.17;59.50;97375.84;3396637;29;20527;-73
2021/11/21 02:30:45;;;;;;;0.45;0.45;;;;;;;8.16;59.79;97368.91;3402612;29;20044;-73
2021/11/21 02:32:26;;;;;;;0.73;0.50;;;;;;;8.17;59.37;97362.56;3403193;29;20050;-73
2021/11/21 02:34:07;;;;;;;0.65;0.50;;;;;;;8.16;59.66;97366.25;3403307;29;20795;-73
2021/11/21 02:35:50;;;;;;;0.77;0.60;;;;;;;8.16;59.54;97371.56;3402369;29;20049;-73
2021/11/21 02:37:31;;;;;;;1.70;0.50;;;;;;;8.15;59.45;97369.97;3402535;29;20062;-73
2021/11/21 02:39:12;;;;;;;0.90;0.35;;;;;;;8.14;59.60;97365.69;3402869;29;20541;-73
2021/11/21 02:40:55;;;;;;;0.63;0.50;;;;;;;8.13;59.51;97367.56;3403091;29;20047;-75
2021/11/21 02:42:36;;;;;;;0.47;0.47;;;;;;;8.14;59.45;97373.66;3402810;29;20099;-73
2021/11/21 02:44:17;;;;;;;0.52;0.50;;;;;;;8.14;59.64;97378.97;3403018;29;20093;-73
2021/11/21 02:45:57;;;;;;;0.50;0.50;;;;;;;8.12;59.49;97373.09;3402975;29;20047;-73
2021/11/21 02:47:39;;;;;;;1.08;1.08;;;;;;;8.11;59.35;97377.59;3402759;29;20054;-73
2021/11/21 02:49:20;;;;;;;0.73;0.50;;;;;;;8.10;59.39;97375.97;3414569;29;20039;-73
2021/11/21 02:51:03;;;;;;;1.23;0.60;;;;;;;8.13;59.51;97372.03;3405423;29;20043;-73
2021/11/21 02:52:44;;;;;;;0.65;0.60;;;;;;;8.15;59.54;97383.22;3402786;29;20044;-73
2021/11/21 02:54:26;;;;;;;0.70;0.50;;;;;;;8.16;59.56;97367.06;3401992;29;20047;-72
2021/11/21 02:56:10;;;;;;;1.30;0.40;;;;;;;8.18;59.34;97369.47;3402366;29;20047;-72
2021/11/21 02:57:53;;;;;;;0.45;0.45;;;;;;;8.19;59.31;97366.59;3401633;29;20052;-73
2021/11/21 02:59:34;;;;;;;0.40;0.40;;;;;;;8.19;59.34;97374.56;3401861;29;20113;-71
2021/11/21 03:01:21;;;;;;;2.40;1.13;;;;;;;8.19;59.25;97366.59;3402682;29;20044;-72
2021/11/21 03:03:01;;;;;;;0.43;0.43;;;;;;;8.19;59.43;97366.59;3402504;29;20043;-71
2021/11/21 03:04:44;;;;;;;1.00;0.50;;;;;;;8.18;59.14;97364.16;3402539;29;20340;-73
2021/11/21 03:06:26;;;;;;;0.40;0.40;;;;;;;8.18;59.21;97364.97;3402507;29;20141;-73
2021/11/21 03:08:07;;;;;;;0.63;0.63;;;;;;;8.18;59.11;97364.16;3402278;29;20035;-73
2021/11/21 03:09:50;;;;;;;0.70;0.68;;;;;;;8.17;59.12;97366.03;3402141;29;20042;-74
2021/11/21 03:11:34;;;;;;;;;;;;;;;8.27;59.14;97368.06;3403095;29;20055;-73
2021/11/21 03:13:14;;;;;;;1.52;0.85;;;;;;;8.21;58.87;97374.31;3415077;29;19922;-73
2021/11/21 03:14:55;;;;;;;1.58;0.70;;;;;;;8.21;59.09;97375.13;3405058;29;20071;-74
2021/11/21 03:16:36;;;;;;;1.10;0.63;;;;;;;8.20;59.11;97372.72;3402280;29;20111;-73
2021/11/21 03:18:16;;;;;;;0.52;0.50;;;;;;;8.18;58.97;97370.28;3402519;29;20048;-73
2021/11/21 03:19:57;;;;;;;0.70;0.50;;;;;;;8.17;59.10;97371.34;3402285;29;20450;-73
2021/11/21 03:21:38;;;;;;;2.17;0.60;;;;;;;8.15;59.19;97365.44;3403093;29;20035;-75
2021/11/21 03:23:18;;;;;;;0.73;0.73;;;;;;;8.14;59.31;97371.81;3414827;29;20047;-75
2021/11/21 03:24:59;;;;;;;1.48;0.60;;;;;;;8.14;59.24;97374.47;3405281;29;20510;-74
2021/11/21 03:26:40;;;;;;;1.57;0.53;;;;;;;8.16;59.05;97382.16;3414766;29;20551;-74
2021/11/21 03:28:21;;;;;;;1.10;0.60;;;;;;;8.16;59.10;97377.69;3405554;29;20291;-75
2021/11/21 03:30:04;;;;;;;0.60;0.60;;;;;;;8.15;59.13;97365.44;3407855;29;20556;-73
2021/11/21 03:31:45;;;;;;;0.95;0.47;;;;;;;8.17;59.16;97373.97;3403158;29;20044;-72
2021/11/21 03:33:26;;;;;;;2.10;0.50;;;;;;;8.18;59.19;97380.09;3412832;29;20116;-72
2021/11/21 03:35:07;;;;;;;0.85;0.60;;;;;;;8.18;59.28;97383.53;3415828;29;20074;-73
2021/11/21 03:36:48;;;;;;;1.15;0.52;;;;;;;8.20;58.96;97383.31;3401543;29;20036;-73
2021/11/21 03:38:28;;;;;;;1.05;0.40;;;;;;;8.20;59.11;97380.66;3412399;29;20198;-72
2021/11/21 03:40:12;;;;;;;0.65;0.65;;;;;;;8.18;59.15;97385.41;3415339;29;20573;-73
2021/11/21 03:41:53;;;;;;;0.40;0.40;;;;;;;8.19;59.02;97377.22;3415559;29;20102;-72
2021/11/21 03:43:34;;;;;;;0.32;0.30;;;;;;;8.19;59.10;97379.88;3401404;29;20507;-73
2021/11/21 03:45:16;;;;;;;0.85;0.80;;;;;;;8.21;59.36;97391.06;3412428;29;20043;-73
2021/11/21 03:46:56;;;;;;;1.85;0.70;;;;;;;8.19;59.25;97381.72;3415386;29;20043;-73
2021/11/21 03:48:37;;;;;;;0.50;0.50;;;;;;;8.14;59.19;97374.47;3415358;29;20246;-71
2021/11/21 03:50:18;;;;;;;0.55;0.55;;;;;;;8.18;59.23;97382.75;3414644;29;20039;-71
2021/11/21 03:51:59;;;;;;;0.73;0.50;;;;;;;8.19;59.16;97387.81;3414972;29;20081;-72
2021/11/21 03:53:40;;;;;;;1.98;0.43;;;;;;;8.16;59.33;97387.47;3400998;29;20054;-71
2021/11/21 03:55:21;;;;;;;0.38;0.38;;;;;;;8.14;59.44;97379.78;3412715;29;20133;-71
2021/11/21 03:57:02;;;;;;;0.40;0.40;;;;;;;8.14;59.13;97384.28;3415351;29;20046;-73
2021/11/21 03:58:43;;;;;;;1.25;0.60;;;;;;;8.11;59.27;97384.75;3400836;29;20040;-74
2021/11/21 04:00:25;;;;;;;1.45;0.38;;;;;;;8.10;59.31;97383.91;3412125;29;20332;-73
2021/11/21 04:02:07;;;;;;;0.77;0.50;;;;;;;8.09;59.19;97393.72;3415475;29;20039;-72
2021/11/21 04:03:47;;;;;;;0.50;0.50;;;;;;;8.10;59.38;97389.22;3415154;29;20517;-74
2021/11/21 04:05:28;;;;;;;0.47;0.47;;;;;;;8.11;59.59;97393.50;3417961;29;20061;-73
2021/11/21 04:07:09;;;;;;;1.40;0.70;;;;;;;8.11;59.33;97385.56;3430920;29;20015;-75
2021/11/21 04:08:49;;;;;;;0.80;0.80;;;;;;;8.12;59.40;97381.84;3432115;28;20051;-74
2021/11/21 04:10:30;;;;;;;1.55;0.50;;;;;;;8.13;59.30;97391.44;3431691;29;20035;-74
2021/11/21 04:12:11;;;;;;;1.75;0.60;;;;;;;8.14;59.23;97395.69;3431289;29;20027;-75
2021/11/21 04:13:52;;;;;;;2.42;0.80;;;;;;;8.14;59.24;97387.72;3427338;29;20047;-74
2021/11/21 04:15:33;;;;;;;1.17;0.70;;;;;;;8.13;59.40;97382.66;3419387;29;20035;-72
2021/11/21 04:17:13;;;;;;;1.48;0.70;;;;;;;8.14;59.38;97389.59;3419786;29;20077;-74
2021/11/21 04:18:54;;;;;;;2.45;0.63;;;;;;;8.12;59.20;97392.47;3416468;28;20538;-74
2021/11/21 04:20:36;;;;;;;0.45;0.45;;;;;;;8.12;59.32;97392.47;3417812;29;20043;-73
2021/11/21 04:22:16;;;;;;;0.82;0.68;;;;;;;8.13;59.36;97394.09;3418200;29;20132;-72
2021/11/21 04:23:57;;;;;;;0.55;0.55;;;;;;;8.14;59.38;97401.00;3402356;29;20044;-73
2021/11/21 04:25:38;;;;;;;0.50;0.50;;;;;;;8.16;59.42;97398.09;3416493;29;20069;-74
2021/11/21 04:27:19;;;;;;;0.75;0.75;;;;;;;8.16;59.10;97401.56;3417415;29;20130;-74
2021/11/21 04:29:00;;;;;;;1.35;0.45;;;;;;;8.17;59.25;97403.16;3415180;29;20043;-74
2021/11/21 04:30:41;;;;;;;0.52;0.50;;;;;;;8.18;59.12;97406.63;3414862;29;20094;-74
2021/11/21 04:32:22;;;;;;;0.70;0.55;;;;;;;8.20;59.35;97401.91;3415060;29;20450;-74
2021/11/21 04:34:03;;;;;;;0.88;0.63;;;;;;;8.21;59.51;97403.50;3415804;29;20430;-74
2021/11/21 04:35:45;;;;;;;0.60;0.60;;;;;;;8.22;59.28;97399.81;3416065;29;20047;-73
2021/11/21 04:37:26;;;;;;;0.85;0.52;;;;;;;8.22;59.10;97403.28;3415769;29;20482;-74
2021/11/21 04:39:06;;;;;;;0.90;0.65;;;;;;;8.19;59.31;97398.44;3415731;29;20462;-73
2021/11/21 04:40:49;;;;;;;3.65;0.80;;;;;;;8.19;59.07;97398.44;3414890;29;20457;-73
2021/11/21 04:42:29;;;;;;;0.47;0.40;;;;;;;8.20;59.00;97404.53;3414057;29;20047;-74
2021/11/21 04:44:10;;;;;;;1.73;0.70;;;;;;;8.20;58.97;97410.66;3400173;29;20475;-73
2021/11/21 04:45:53;;;;;;;1.65;0.55;;;;;;;8.20;59.11;97415.97;3411894;29;20122;-74
2021/11/21 04:47:34;;;;;;;0.75;0.55;;;;;;;8.19;59.20;97418.88;3414628;29;20039;-72
2021/11/21 04:49:15;;;;;;;0.80;0.80;;;;;;;8.18;59.18;97420.69;3414609;29;20071;-73
2021/11/21 04:50:55;;;;;;;0.73;0.60;;;;;;;8.15;59.04;97407.91;3414860;29;20047;-73
2021/11/21 04:52:37;;;;;;;0.40;0.40;;;;;;;8.18;59.10;97423.34;3414845;29;20174;-73
2021/11/21 04:54:18;;;;;;;1.23;0.70;;;;;;;8.20;59.06;97421.25;3415171;29;20414;-74
2021/11/21 04:55:59;;;;;;;0.45;0.40;;;;;;;8.21;59.15;97425.56;3414459;29;20043;-75
2021/11/21 04:57:42;;;;;;;0.70;0.70;;;;;;;8.19;59.04;97419.66;3400643;29;20483;-74
2021/11/21 04:59:22;;;;;;;1.38;0.82;;;;;;;8.18;58.94;97425.19;3412205;29;20121;-73
2021/11/21 05:01:03;;;;;;;0.82;0.60;;;;;;;8.18;59.08;97426.00;3417149;28;20035;-73
2021/11/21 05:02:48;;;;;;;1.40;0.63;;;;;;;8.17;59.13;97416.44;3427502;28;20571;-73
2021/11/21 05:04:29;;;;;;;1.05;0.80;;;;;;;8.18;59.26;97428.66;3413369;28;20091;-73
2021/11/21 05:06:09;;;;;;;1.75;0.65;;;;;;;8.18;59.13;97431.31;3424184;28;20564;-75
2021/11/21 05:07:51;;;;;;;1.95;0.43;;;;;;;8.20;59.20;97434.53;3427906;28;20046;-73
2021/11/21 05:09:31;;;;;;;2.50;0.70;;;;;;;8.21;59.11;97428.22;3427606;28;20041;-76
2021/11/21 05:11:12;;;;;;;1.92;0.65;;;;;;;8.20;59.14;97429.22;3423729;28;20043;-73
2021/11/21 05:12:53;;;;;;;0.80;0.60;;;;;;;8.21;59.28;97430.03;3414238;29;20047;-75
2021/11/21 05:14:34;;;;;;;1.42;0.60;;;;;;;8.21;58.80;97430.84;3414252;29;20207;-72
2021/11/21 05:16:14;;;;;;;1.08;0.60;;;;;;;8.21;59.10;97441.47;3424140;28;20109;-73
2021/11/21 05:17:55;;;;;;;1.23;0.57;;;;;;;8.21;58.91;97436.16;3412484;29;20058;-74
2021/11/21 05:19:36;;;;;;;3.33;0.73;;;;;;;8.21;59.02;97440.63;3410766;29;20413;-73
2021/11/21 05:21:17;;;;;;;0.50;0.50;;;;;;;8.21;59.10;97446.78;3401428;29;20070;-74
2021/11/21 05:22:58;;;;;;;0.63;0.63;;;;;;;8.20;59.26;97447.81;3425133;28;20043;-74
2021/11/21 05:24:39;;;;;;;2.22;0.63;;;;;;;8.22;59.08;97445.72;3427751;28;20126;-72
2021/11/21 05:26:22;;;;;;;1.95;0.70;;;;;;;8.21;59.19;97435.34;3427791;28;20051;-74
2021/11/21 05:28:04;;;;;;;1.30;0.70;;;;;;;8.21;59.09;97444.13;3413309;29;20109;-74
2021/11/21 05:29:44;;;;;;;0.73;0.52;;;;;;;8.21;58.90;97444.13;3413560;28;20059;-74
2021/11/21 05:31:25;;;;;;;5.07;0.80;;;;;;;8.23;58.99;97439.38;3418278;28;20051;-73
2021/11/21 05:33:06;;;;;;;0.68;0.50;;;;;;;8.23;59.04;97436.72;3430566;28;20074;-73
2021/11/21 05:34:47;;;;;;;0.68;0.68;;;;;;;8.25;59.07;97444.44;3430447;28;20141;-74
2021/11/21 05:36:28;;;;;;;1.00;0.57;;;;;;;8.22;59.12;97432.47;3429786;28;20505;-74
2021/11/21 05:38:09;;;;;;;2.05;0.60;;;;;;;8.24;58.99;97443.66;3424390;28;20063;-74
2021/11/21 05:39:49;;;;;;;0.60;0.55;;;;;;;8.23;58.95;97436.72;3416559;29;20178;-73
2021/11/21 05:41:32;;;;;;;0.88;0.60;;;;;;;8.23;58.94;97439.38;3416574;29;20098;-71
2021/11/21 05:43:12;;;;;;;2.83;0.60;;;;;;;8.23;58.92;97442.03;3429650;28;20046;-72
2021/11/21 05:44:53;;;;;;;2.15;0.60;;;;;;;8.23;59.00;97434.06;3430289;28;20068;-73
2021/11/21 05:46:34;;;;;;;0.50;0.50;;;;;;;8.23;59.00;97436.72;3429960;28;20066;-74
2021/11/21 05:48:15;;;;;;;0.52;0.50;;;;;;;8.23;58.98;97439.38;3415679;29;20533;-73
2021/11/21 05:49:55;;;;;;;0.73;0.60;;;;;;;8.24;58.96;97437.53;3420351;28;20039;-74
2021/11/21 05:51:36;;;;;;;2.03;0.52;;;;;;;8.23;59.01;97431.41;3402098;29;20043;-73
2021/11/21 05:53:17;;;;;;;0.95;0.80;;;;;;;8.25;58.85;97434.63;3413505;29;20474;-73
2021/11/21 05:54:58;;;;;;;1.13;0.60;;;;;;;8.29;58.62;97446.41;3402480;29;20127;-74
2021/11/21 05:56:38;;;;;;;0.60;0.60;;;;;;;8.29;58.87;97432.34;3412110;29;20079;-74
2021/11/21 05:58:22;;;;;;;0.63;0.63;;;;;;;8.32;58.63;97429.22;3402612;29;20054;-73
2021/11/21 06:00:06;;;;;;;3.80;0.60;;;;;;;8.33;58.84;97435.31;3414400;29;20043;-75
2021/11/21 06:01:53;;;;;;;0.50;0.50;;;;;;;8.35;58.61;97433.25;3416942;29;21129;-75
2021/11/21 06:03:34;;;;;;;0.65;0.65;;;;;;;8.34;58.62;97429.78;3429016;28;20089;-75
2021/11/21 06:05:15;;;;;;;1.08;0.60;;;;;;;8.34;58.63;97432.44;3429754;28;20047;-72
2021/11/21 06:06:56;;;;;;;0.70;0.52;;;;;;;8.33;58.38;97427.34;3426548;28;20416;-71
2021/11/21 06:08:37;;;;;;;1.55;0.73;;;;;;;8.35;58.43;97430.59;3429044;28;20161;-72
2021/11/21 06:10:18;;;;;;;1.30;0.50;;;;;;;8.37;58.33;97436.47;3416726;28;20507;-73
2021/11/21 06:11:59;;;;;;;0.55;0.55;;;;;;;8.38;58.16;97433.56;3404259;29;20036;-72
2021/11/21 06:13:41;;;;;;;0.68;0.63;;;;;;;8.39;58.53;97426.41;3426987;28;20413;-72
2021/11/21 06:15:21;;;;;;;1.48;0.63;;;;;;;8.39;58.33;97427.25;3429780;28;20623;-73
2021/11/21 06:17:04;;;;;;;1.55;0.98;;;;;;;8.37;58.31;97424.00;3417487;28;20043;-72
2021/11/21 06:18:44;;;;;;;1.75;0.50;;;;;;;8.40;58.23;97417.44;3416381;29;20107;-73
2021/11/21 06:20:25;;;;;;;1.55;0.73;;;;;;;8.39;58.39;97427.25;3415858;29;20099;-74
2021/11/21 06:22:06;;;;;;;1.75;0.88;;;;;;;8.42;58.12;97434.75;3417192;28;20514;-75
2021/11/21 06:23:47;;;;;;;5.85;0.80;;;;;;;8.42;58.03;97428.63;3429504;28;20043;-72
2021/11/21 06:25:28;;;;;;;1.38;0.70;;;;;;;8.46;58.13;97435.06;3429593;28;20049;-71
2021/11/21 06:27:08;;;;;;;9.98;0.90;;;;;;;8.45;58.14;97449.38;3416790;28;20047;-71
2021/11/21 06:28:49;;;;;;;3.45;0.70;;;;;;;8.46;58.24;97449.13;3416404;29;20046;-75
2021/11/21 06:30:30;;;;;;;3.40;0.60;;;;;;;8.48;58.07;97443.59;3420481;28;20047;-72
2021/11/21 06:32:11;;;;;;;3.78;1.10;;;;;;;8.50;58.46;97452.94;3416620;28;20075;-73
2021/11/21 06:33:55;;;;;;;5.30;0.88;;;;;;;8.52;58.37;97450.06;3428468;28;20069;-73
2021/11/21 06:35:37;;;;;;;4.90;0.70;;;;;;;8.54;58.50;97447.97;3429493;28;20046;-73
2021/11/21 06:37:18;;;;;;;4.13;0.60;;;;;;;8.58;58.55;97459.72;3415282;29;20047;-75
2021/11/21 06:38:59;;;;;;;5.03;0.90;;;;;;;8.61;58.60;97467.22;3401814;29;20043;-75
2021/11/21 06:40:40;;;;;;;2.67;0.57;;;;;;;8.64;58.69;97456.13;3413306;28;20122;-74
2021/11/21 06:42:20;;;;;;;2.20;0.70;;;;;;;8.66;58.79;97459.34;3416275;28;20094;-73
2021/11/21 06:44:01;;;;;;;3.55;0.80;;;;;;;8.68;58.72;97457.25;3401233;29;20043;-75
2021/11/21 06:45:42;;;;;;;4.03;0.80;;;;;;;8.66;58.61;97454.03;3424198;28;20043;-76
2021/11/21 06:47:23;;;;;;;4.60;0.82;;;;;;;8.70;58.93;97460.50;3390658;29;20580;-75
2021/11/21 06:49:04;;;;;;;1.33;0.73;;;;;;;8.70;58.91;97451.72;3411608;28;20073;-74
2021/11/21 06:50:48;;;;;;;3.00;0.60;;;;;;;8.73;58.79;97456.56;3414949;29;20047;-73
2021/11/21 06:52:30;;;;;;;0.60;0.55;;;;;;;8.74;58.77;97456.31;3399773;29;20074;-74
2021/11/21 06:54:13;;;;;;;3.72;1.15;;;;;;;8.76;58.65;97456.06;3401206;29;20047;-75
2021/11/21 06:55:53;;;;;;;1.50;0.70;;;;;;;8.76;58.23;97455.28;3403271;29;20138;-73
2021/11/21 06:57:34;;;;;;;1.80;0.90;;;;;;;8.74;58.20;97472.25;3412160;29;20522;-71
2021/11/21 06:59:15;;;;;;;1.27;0.70;;;;;;;8.70;58.15;97457.84;3402753;29;20055;-75
2021/11/21 07:00:56;;;;;;;1.13;0.73;;;;;;;8.66;58.13;97455.88;3419317;28;20050;-76
2021/11/21 07:02:37;;;;;;;0.93;0.65;;;;;;;8.68;58.35;97462.56;3428930;28;20057;-75
2021/11/21 07:04:18;;;;;;;0.70;0.60;;;;;;;8.70;58.28;97467.66;3428538;28;20542;-74
2021/11/21 07:05:58;;;;;;;1.33;0.70;;;;;;;8.72;58.48;97471.69;3428804;28;20058;-74
2021/11/21 07:07:40;;;;;;;4.82;1.00;;;;;;;8.76;58.58;97471.22;3421112;28;20426;-79
2021/11/21 07:09:30;;;;;;;3.25;0.90;;;;;;;8.83;58.98;97471.84;3414860;28;20070;-77
2021/11/21 07:11:12;;;;;;;2.75;0.88;;;;;;;8.87;58.97;97473.00;3397967;29;20047;-76
2021/11/21 07:12:53;;;;;;;2.08;0.90;;;;;;;8.90;59.05;97467.22;3418151;28;20130;-75
2021/11/21 07:14:36;;;;;;;4.35;0.80;;;;;;;8.91;59.05;97474.16;3414741;29;21258;-75
2021/11/21 07:16:20;;;;;;;0.70;0.60;;;;;;;8.94;59.24;97482.44;3426384;28;20141;-74
2021/11/21 07:18:01;;;;;;;1.05;0.77;;;;;;;8.95;59.23;97470.75;3427598;28;20537;-71
2021/11/21 07:19:44;;;;;;;2.20;1.10;;;;;;;9.04;59.58;97481.03;3428351;28;20042;-72
2021/11/21 07:21:45;;;;;;;3.47;0.75;;;;;;;9.10;59.81;97480.84;3415065;29;20137;-76
2021/11/21 07:23:26;;;;;;;1.15;0.88;;;;;;;9.20;59.40;97490.06;3414755;29;20391;-76
2021/11/21 07:25:07;;;;;;;1.40;0.80;;;;;;;9.28;59.10;97479.81;3416187;29;20058;-76
2021/11/21 07:26:48;;;;;;;3.40;0.87;;;;;;;9.37;59.32;97494.34;3402191;29;20055;-75
2021/11/21 07:28:28;;;;;;;7.93;0.82;;;;;;;9.44;58.96;97488.84;3413179;29;20885;-77
2021/11/21 07:30:11;;;;;;;4.75;1.08;;;;;;;9.52;58.96;97483.13;3426690;28;20054;-80
2021/11/21 07:31:52;;;;;;;6.72;2.33;;;;;;;9.66;58.95;97482.81;3416879;28;20043;-79
2021/11/21 07:33:33;;;;;;;4.05;1.10;;;;;;;9.73;58.62;97486.09;3416598;29;20043;-79
2021/11/21 07:35:17;;;;;;;10.48;1.23;;;;;;;9.78;59.87;97479.03;3415805;29;20049;-79
2021/11/21 07:36:58;;;;;;;2.22;0.90;;;;;;;9.97;59.14;97497.38;3389877;29;20118;-79
2021/11/21 07:38:50;;;;;;;;;;;;;;;10.10;58.82;97497.03;3399634;29;20503;-76
2021/11/21 07:40:31;;;;;;;3.10;1.02;;;;;;;10.09;58.43;97495.41;3427391;28;19922;-78
2021/11/21 07:42:12;;;;;;;4.30;1.63;;;;;;;10.09;58.09;97483.94;3414715;28;20074;-78
2021/11/21 07:43:53;;;;;;;3.33;1.15;;;;;;;10.14;57.92;97497.31;3415787;29;20050;-75
2021/11/21 07:45:33;;;;;;;1.00;0.65;;;;;;;10.19;57.99;97492.06;3415331;29;20399;-74
2021/11/21 07:47:15;;;;;;;3.63;0.90;;;;;;;10.25;58.27;97493.78;3402038;29;20438;-74
2021/11/21 07:48:55;;;;;;;0.90;0.63;;;;;;;10.34;57.83;97502.94;3411702;29;20054;-75
2021/11/21 07:50:36;;;;;;;15.48;1.20;;;;;;;10.38;57.55;97498.75;3427318;28;20125;-75
2021/11/21 07:52:17;;;;;;;6.20;1.13;;;;;;;10.43;58.23;97501.47;3415903;28;20050;-75
2021/11/21 07:53:58;;;;;;;4.63;1.08;;;;;;;10.48;57.78;97500.75;3415308;28;20049;-76
2021/11/21 07:55:38;;;;;;;1.73;0.80;;;;;;;10.51;57.45;97499.41;3415318;29;20099;-77
2021/11/21 07:57:19;;;;;;;2.28;0.88;;;;;;;10.53;56.95;97499.97;3426459;28;20043;-76
2021/11/21 07:59:00;;;;;;;3.55;1.08;;;;;;;10.53;56.91;97498.13;3428583;28;20046;-75
2021/11/21 08:00:41;;;;;;;3.28;0.73;;;;;;;10.54;56.53;97499.75;3428384;28;20413;-76
2021/11/21 08:02:21;;;;;;;3.90;1.63;;;;;;;10.53;56.38;97497.31;3418984;28;20085;-75
2021/11/21 08:04:02;;;;;;;5.38;1.65;;;;;;;10.52;56.17;97501.03;3428236;28;20043;-77